sensor_id;sensor_type;location;lat;lon;timestamp;P1;durP1;ratioP1;P2;durP2;ratioP2
13255;SDS011;37913;48.370;10.930;2022-08-03T00:01:06;93.80;;;42.92;;
13255;SDS011;37913;48.370;10.930;2022-08-03T00:03:32;94.72;;;43.17;;
13255;SDS011;37913;48.370;10.930;2022-08-03T00:05:59;99.10;;;44.47;;
13255;SDS011;37913;48.370;10.930;2022-08-03T00:08:27;89.60;;;42.22;;
13255;SDS011;37913;48.370;10.930;2022-08-03T00:10:54;93.30;;;42.65;;
13255;SDS011;37913;48.370;10.930;2022-08-03T00:13:21;87.40;;;41.47;;
13255;SDS011;37913;48.370;10.930;2022-08-03T00:15:49;88.18;;;42.20;;
13255;SDS011;37913;48.370;10.930;2022-08-03T00:18:16;85.05;;;41.05;;
13255;SDS011;37913;48.370;10.930;2022-08-03T00:20:44;88.88;;;41.63;;
13255;SDS011;37913;48.370;10.930;2022-08-03T00:23:12;93.68;;;42.55;;
13255;SDS011;37913;48.370;10.930;2022-08-03T00:25:39;97.68;;;43.22;;
13255;SDS011;37913;48.370;10.930;2022-08-03T00:28:06;88.15;;;41.10;;
13255;SDS011;37913;48.370;10.930;2022-08-03T00:30:33;92.82;;;42.05;;
13255;SDS011;37913;48.370;10.930;2022-08-03T00:33:02;98.15;;;43.40;;
13255;SDS011;37913;48.370;10.930;2022-08-03T00:35:29;87.35;;;41.25;;
13255;SDS011;37913;48.370;10.930;2022-08-03T00:37:56;85.30;;;40.85;;
13255;SDS011;37913;48.370;10.930;2022-08-03T00:40:23;78.35;;;40.00;;
13255;SDS011;37913;48.370;10.930;2022-08-03T00:42:51;91.70;;;42.00;;
13255;SDS011;37913;48.370;10.930;2022-08-03T00:45:19;101.00;;;43.65;;
13255;SDS011;37913;48.370;10.930;2022-08-03T00:47:50;84.72;;;40.47;;
13255;SDS011;37913;48.370;10.930;2022-08-03T00:50:18;86.90;;;40.90;;
13255;SDS011;37913;48.370;10.930;2022-08-03T00:52:47;93.82;;;42.65;;
13255;SDS011;37913;48.370;10.930;2022-08-03T00:55:14;84.72;;;41.20;;
13255;SDS011;37913;48.370;10.930;2022-08-03T00:57:42;76.50;;;39.72;;
13255;SDS011;37913;48.370;10.930;2022-08-03T01:00:10;93.00;;;42.30;;
13255;SDS011;37913;48.370;10.930;2022-08-03T01:02:39;78.40;;;39.65;;
13255;SDS011;37913;48.370;10.930;2022-08-03T01:05:07;98.18;;;42.45;;
13255;SDS011;37913;48.370;10.930;2022-08-03T01:07:39;96.55;;;43.38;;
13255;SDS011;37913;48.370;10.930;2022-08-03T01:10:12;93.63;;;42.25;;
13255;SDS011;37913;48.370;10.930;2022-08-03T01:12:47;93.50;;;41.90;;
13255;SDS011;37913;48.370;10.930;2022-08-03T01:15:24;89.57;;;41.53;;
13255;SDS011;37913;48.370;10.930;2022-08-03T01:17:56;94.68;;;42.28;;
13255;SDS011;37913;48.370;10.930;2022-08-03T01:20:29;88.80;;;41.95;;
13255;SDS011;37913;48.370;10.930;2022-08-03T01:23:09;92.35;;;41.88;;
13255;SDS011;37913;48.370;10.930;2022-08-03T01:28:58;93.82;;;42.33;;
13255;SDS011;37913;48.370;10.930;2022-08-03T01:31:35;93.65;;;42.47;;
13255;SDS011;37913;48.370;10.930;2022-08-03T01:34:08;99.32;;;43.53;;
13255;SDS011;37913;48.370;10.930;2022-08-03T01:36:42;92.35;;;42.25;;
13255;SDS011;37913;48.370;10.930;2022-08-03T01:39:13;85.22;;;40.80;;
13255;SDS011;37913;48.370;10.930;2022-08-03T01:41:43;92.30;;;42.60;;
13255;SDS011;37913;48.370;10.930;2022-08-03T01:44:14;85.93;;;41.00;;
13255;SDS011;37913;48.370;10.930;2022-08-03T01:46:43;106.75;;;45.25;;
13255;SDS011;37913;48.370;10.930;2022-08-03T01:49:13;96.00;;;43.10;;
13255;SDS011;37913;48.370;10.930;2022-08-03T01:51:41;102.32;;;44.38;;
13255;SDS011;37913;48.370;10.930;2022-08-03T01:54:09;91.72;;;42.13;;
13255;SDS011;37913;48.370;10.930;2022-08-03T01:56:37;93.53;;;42.50;;
13255;SDS011;37913;48.370;10.930;2022-08-03T01:59:06;94.85;;;42.60;;
13255;SDS011;37913;48.370;10.930;2022-08-03T02:01:35;92.32;;;42.67;;
13255;SDS011;37913;48.370;10.930;2022-08-03T02:04:05;98.22;;;43.25;;
13255;SDS011;37913;48.370;10.930;2022-08-03T02:06:33;97.45;;;43.50;;
13255;SDS011;37913;48.370;10.930;2022-08-03T02:09:02;89.38;;;42.00;;
13255;SDS011;37913;48.370;10.930;2022-08-03T02:11:31;99.35;;;43.83;;
13255;SDS011;37913;48.370;10.930;2022-08-03T02:13:59;83.25;;;40.53;;
13255;SDS011;37913;48.370;10.930;2022-08-03T02:16:29;90.60;;;42.00;;
13255;SDS011;37913;48.370;10.930;2022-08-03T02:18:57;92.32;;;41.75;;
13255;SDS011;37913;48.370;10.930;2022-08-03T02:21:28;94.55;;;42.80;;
13255;SDS011;37913;48.370;10.930;2022-08-03T02:23:57;94.30;;;42.72;;
13255;SDS011;37913;48.370;10.930;2022-08-03T02:26:25;84.28;;;40.55;;
13255;SDS011;37913;48.370;10.930;2022-08-03T02:28:55;88.20;;;41.95;;
13255;SDS011;37913;48.370;10.930;2022-08-03T02:31:26;100.30;;;44.45;;
13255;SDS011;37913;48.370;10.930;2022-08-03T02:33:57;91.43;;;42.30;;
13255;SDS011;37913;48.370;10.930;2022-08-03T02:36:28;89.47;;;42.30;;
13255;SDS011;37913;48.370;10.930;2022-08-03T02:38:58;97.85;;;43.53;;
13255;SDS011;37913;48.370;10.930;2022-08-03T02:41:28;107.53;;;45.85;;
13255;SDS011;37913;48.370;10.930;2022-08-03T02:43:58;85.35;;;41.30;;
13255;SDS011;37913;48.370;10.930;2022-08-03T02:46:29;86.75;;;41.47;;
13255;SDS011;37913;48.370;10.930;2022-08-03T02:48:59;86.18;;;41.53;;
13255;SDS011;37913;48.370;10.930;2022-08-03T02:51:31;114.00;;;46.50;;
13255;SDS011;37913;48.370;10.930;2022-08-03T02:54:01;88.75;;;41.75;;
13255;SDS011;37913;48.370;10.930;2022-08-03T02:56:29;101.88;;;44.20;;
13255;SDS011;37913;48.370;10.930;2022-08-03T02:58:57;90.82;;;42.03;;
13255;SDS011;37913;48.370;10.930;2022-08-03T03:01:26;91.63;;;42.58;;
13255;SDS011;37913;48.370;10.930;2022-08-03T03:03:54;95.07;;;43.33;;
13255;SDS011;37913;48.370;10.930;2022-08-03T03:06:22;92.05;;;42.25;;
13255;SDS011;37913;48.370;10.930;2022-08-03T03:08:53;96.78;;;43.15;;
13255;SDS011;37913;48.370;10.930;2022-08-03T03:11:21;105.07;;;44.83;;
13255;SDS011;37913;48.370;10.930;2022-08-03T03:13:50;96.30;;;43.20;;
13255;SDS011;37913;48.370;10.930;2022-08-03T03:16:18;105.55;;;44.70;;
13255;SDS011;37913;48.370;10.930;2022-08-03T03:18:45;102.35;;;43.53;;
13255;SDS011;37913;48.370;10.930;2022-08-03T03:21:15;92.55;;;42.50;;
13255;SDS011;37913;48.370;10.930;2022-08-03T03:23:44;90.25;;;41.35;;
13255;SDS011;37913;48.370;10.930;2022-08-03T03:26:13;92.93;;;42.28;;
13255;SDS011;37913;48.370;10.930;2022-08-03T03:28:41;90.40;;;42.33;;
13255;SDS011;37913;48.370;10.930;2022-08-03T03:31:08;104.03;;;44.60;;
13255;SDS011;37913;48.370;10.930;2022-08-03T03:33:35;98.90;;;43.08;;
13255;SDS011;37913;48.370;10.930;2022-08-03T03:36:03;91.68;;;42.05;;
13255;SDS011;37913;48.370;10.930;2022-08-03T03:38:31;91.90;;;41.50;;
13255;SDS011;37913;48.370;10.930;2022-08-03T03:40:59;96.75;;;42.70;;
13255;SDS011;37913;48.370;10.930;2022-08-03T03:43:28;90.05;;;41.20;;
13255;SDS011;37913;48.370;10.930;2022-08-03T03:45:55;93.25;;;42.20;;
13255;SDS011;37913;48.370;10.930;2022-08-03T03:48:24;90.15;;;41.55;;
13255;SDS011;37913;48.370;10.930;2022-08-03T03:50:54;96.53;;;42.70;;
13255;SDS011;37913;48.370;10.930;2022-08-03T03:53:25;94.10;;;42.58;;
13255;SDS011;37913;48.370;10.930;2022-08-03T03:55:57;93.50;;;41.85;;
13255;SDS011;37913;48.370;10.930;2022-08-03T03:58:24;92.80;;;42.33;;
13255;SDS011;37913;48.370;10.930;2022-08-03T04:00:53;98.50;;;42.67;;
13255;SDS011;37913;48.370;10.930;2022-08-03T04:03:26;102.35;;;43.60;;
13255;SDS011;37913;48.370;10.930;2022-08-03T04:05:53;100.82;;;43.28;;
13255;SDS011;37913;48.370;10.930;2022-08-03T04:08:37;106.25;;;44.17;;
13255;SDS011;37913;48.370;10.930;2022-08-03T04:11:25;94.53;;;42.40;;
13255;SDS011;37913;48.370;10.930;2022-08-03T04:13:55;85.35;;;40.50;;
13255;SDS011;37913;48.370;10.930;2022-08-03T04:16:27;92.10;;;41.72;;
13255;SDS011;37913;48.370;10.930;2022-08-03T04:18:59;100.30;;;43.30;;
13255;SDS011;37913;48.370;10.930;2022-08-03T04:21:28;97.75;;;43.15;;
13255;SDS011;37913;48.370;10.930;2022-08-03T04:23:59;92.93;;;42.58;;
13255;SDS011;37913;48.370;10.930;2022-08-03T04:26:28;97.68;;;43.22;;
13255;SDS011;37913;48.370;10.930;2022-08-03T04:28:58;94.90;;;42.63;;
13255;SDS011;37913;48.370;10.930;2022-08-03T04:31:27;100.88;;;43.00;;
13255;SDS011;37913;48.370;10.930;2022-08-03T04:33:55;96.55;;;43.47;;
13255;SDS011;37913;48.370;10.930;2022-08-03T04:36:24;94.82;;;42.92;;
13255;SDS011;37913;48.370;10.930;2022-08-03T04:38:55;105.07;;;44.53;;
13255;SDS011;37913;48.370;10.930;2022-08-03T04:41:26;94.78;;;43.00;;
13255;SDS011;37913;48.370;10.930;2022-08-03T04:43:54;93.85;;;42.53;;
13255;SDS011;37913;48.370;10.930;2022-08-03T04:46:25;105.93;;;44.75;;
13255;SDS011;37913;48.370;10.930;2022-08-03T04:48:55;108.18;;;45.15;;
13255;SDS011;37913;48.370;10.930;2022-08-03T04:51:22;103.32;;;44.42;;
13255;SDS011;37913;48.370;10.930;2022-08-03T04:53:49;107.60;;;44.25;;
13255;SDS011;37913;48.370;10.930;2022-08-03T04:56:17;109.10;;;45.40;;
13255;SDS011;37913;48.370;10.930;2022-08-03T04:58:44;91.85;;;42.30;;
13255;SDS011;37913;48.370;10.930;2022-08-03T05:01:13;89.57;;;42.40;;
13255;SDS011;37913;48.370;10.930;2022-08-03T05:03:42;95.50;;;41.85;;
13255;SDS011;37913;48.370;10.930;2022-08-03T05:06:10;88.32;;;41.67;;
13255;SDS011;37913;48.370;10.930;2022-08-03T05:08:37;90.22;;;41.50;;
13255;SDS011;37913;48.370;10.930;2022-08-03T05:11:05;100.18;;;43.17;;
13255;SDS011;37913;48.370;10.930;2022-08-03T05:13:32;84.07;;;40.17;;
13255;SDS011;37913;48.370;10.930;2022-08-03T05:15:59;90.78;;;41.92;;
13255;SDS011;37913;48.370;10.930;2022-08-03T05:18:26;84.85;;;41.25;;
13255;SDS011;37913;48.370;10.930;2022-08-03T05:20:53;91.32;;;43.30;;
13255;SDS011;37913;48.370;10.930;2022-08-03T05:23:21;95.30;;;43.38;;
13255;SDS011;37913;48.370;10.930;2022-08-03T05:25:48;94.72;;;43.85;;
13255;SDS011;37913;48.370;10.930;2022-08-03T05:28:16;99.53;;;46.03;;
13255;SDS011;37913;48.370;10.930;2022-08-03T05:30:43;100.07;;;45.00;;
13255;SDS011;37913;48.370;10.930;2022-08-03T05:33:10;101.82;;;45.28;;
13255;SDS011;37913;48.370;10.930;2022-08-03T05:35:37;93.45;;;43.72;;
13255;SDS011;37913;48.370;10.930;2022-08-03T05:38:12;94.97;;;44.85;;
13255;SDS011;37913;48.370;10.930;2022-08-03T05:40:48;85.22;;;43.22;;
13255;SDS011;37913;48.370;10.930;2022-08-03T05:43:15;92.57;;;45.10;;
13255;SDS011;37913;48.370;10.930;2022-08-03T05:45:42;95.18;;;45.67;;
13255;SDS011;37913;48.370;10.930;2022-08-03T05:48:09;83.80;;;43.45;;
13255;SDS011;37913;48.370;10.930;2022-08-03T05:50:36;87.07;;;44.08;;
13255;SDS011;37913;48.370;10.930;2022-08-03T05:55:42;103.20;;;48.00;;
13255;SDS011;37913;48.370;10.930;2022-08-03T05:58:09;104.97;;;48.30;;
13255;SDS011;37913;48.370;10.930;2022-08-03T06:00:36;100.97;;;47.28;;
13255;SDS011;37913;48.370;10.930;2022-08-03T06:03:03;92.25;;;46.50;;
13255;SDS011;37913;48.370;10.930;2022-08-03T06:05:34;93.82;;;47.15;;
13255;SDS011;37913;48.370;10.930;2022-08-03T06:08:01;86.68;;;45.47;;
13255;SDS011;37913;48.370;10.930;2022-08-03T06:10:28;91.15;;;46.30;;
13255;SDS011;37913;48.370;10.930;2022-08-03T06:12:56;84.90;;;45.65;;
13255;SDS011;37913;48.370;10.930;2022-08-03T06:15:24;91.57;;;46.88;;
13255;SDS011;37913;48.370;10.930;2022-08-03T06:17:51;87.55;;;46.90;;
13255;SDS011;37913;48.370;10.930;2022-08-03T06:20:18;93.88;;;48.95;;
13255;SDS011;37913;48.370;10.930;2022-08-03T06:22:46;88.88;;;49.00;;
13255;SDS011;37913;48.370;10.930;2022-08-03T06:25:15;95.88;;;50.20;;
13255;SDS011;37913;48.370;10.930;2022-08-03T06:27:43;95.15;;;50.70;;
13255;SDS011;37913;48.370;10.930;2022-08-03T06:30:13;89.53;;;50.47;;
13255;SDS011;37913;48.370;10.930;2022-08-03T06:32:41;98.60;;;53.65;;
13255;SDS011;37913;48.370;10.930;2022-08-03T06:35:08;96.22;;;52.78;;
13255;SDS011;37913;48.370;10.930;2022-08-03T06:37:44;97.75;;;53.03;;
13255;SDS011;37913;48.370;10.930;2022-08-03T06:40:28;91.03;;;52.88;;
13255;SDS011;37913;48.370;10.930;2022-08-03T06:42:55;84.45;;;52.90;;
13255;SDS011;37913;48.370;10.930;2022-08-03T06:45:24;97.13;;;55.47;;
13255;SDS011;37913;48.370;10.930;2022-08-03T06:47:58;92.40;;;54.38;;
13255;SDS011;37913;48.370;10.930;2022-08-03T06:50:27;86.90;;;54.97;;
13255;SDS011;37913;48.370;10.930;2022-08-03T06:52:54;92.95;;;56.78;;
13255;SDS011;37913;48.370;10.930;2022-08-03T06:55:21;93.43;;;57.63;;
13255;SDS011;37913;48.370;10.930;2022-08-03T06:57:48;89.80;;;55.97;;
13255;SDS011;37913;48.370;10.930;2022-08-03T07:00:21;92.53;;;56.70;;
13255;SDS011;37913;48.370;10.930;2022-08-03T07:02:50;98.22;;;59.78;;
13255;SDS011;37913;48.370;10.930;2022-08-03T07:05:17;95.72;;;60.35;;
13255;SDS011;37913;48.370;10.930;2022-08-03T07:07:44;104.22;;;62.78;;
13255;SDS011;37913;48.370;10.930;2022-08-03T07:10:12;91.80;;;60.30;;
13255;SDS011;37913;48.370;10.930;2022-08-03T07:12:39;98.53;;;62.20;;
13255;SDS011;37913;48.370;10.930;2022-08-03T07:15:07;101.97;;;63.13;;
13255;SDS011;37913;48.370;10.930;2022-08-03T07:17:35;109.10;;;66.68;;
13255;SDS011;37913;48.370;10.930;2022-08-03T07:20:03;102.40;;;66.38;;
13255;SDS011;37913;48.370;10.930;2022-08-03T07:22:31;99.65;;;64.68;;
13255;SDS011;37913;48.370;10.930;2022-08-03T07:24:58;132.30;;;72.55;;
13255;SDS011;37913;48.370;10.930;2022-08-03T07:27:26;106.05;;;70.05;;
13255;SDS011;37913;48.370;10.930;2022-08-03T07:29:54;96.20;;;68.72;;
13255;SDS011;37913;48.370;10.930;2022-08-03T07:32:21;103.32;;;71.63;;
13255;SDS011;37913;48.370;10.930;2022-08-03T07:34:50;136.02;;;75.85;;
13255;SDS011;37913;48.370;10.930;2022-08-03T07:37:17;109.95;;;73.30;;
13255;SDS011;37913;48.370;10.930;2022-08-03T07:39:44;106.32;;;72.07;;
13255;SDS011;37913;48.370;10.930;2022-08-03T07:42:11;102.97;;;73.63;;
13255;SDS011;37913;48.370;10.930;2022-08-03T07:44:38;98.10;;;75.22;;
13255;SDS011;37913;48.370;10.930;2022-08-03T07:47:05;97.47;;;75.80;;
13255;SDS011;37913;48.370;10.930;2022-08-03T07:49:32;105.13;;;81.63;;
13255;SDS011;37913;48.370;10.930;2022-08-03T07:52:00;106.15;;;83.07;;
13255;SDS011;37913;48.370;10.930;2022-08-03T07:54:44;122.80;;;85.07;;
13255;SDS011;37913;48.370;10.930;2022-08-03T07:57:11;101.75;;;80.45;;
13255;SDS011;37913;48.370;10.930;2022-08-03T07:59:38;97.60;;;79.40;;
13255;SDS011;37913;48.370;10.930;2022-08-03T08:02:06;113.38;;;89.57;;
13255;SDS011;37913;48.370;10.930;2022-08-03T08:04:34;94.82;;;84.57;;
13255;SDS011;37913;48.370;10.930;2022-08-03T08:07:02;103.85;;;89.05;;
13255;SDS011;37913;48.370;10.930;2022-08-03T08:09:29;107.45;;;92.60;;
13255;SDS011;37913;48.370;10.930;2022-08-03T08:11:56;104.28;;;93.07;;
13255;SDS011;37913;48.370;10.930;2022-08-03T08:14:23;111.13;;;97.55;;
13255;SDS011;37913;48.370;10.930;2022-08-03T08:16:49;109.68;;;97.78;;
13255;SDS011;37913;48.370;10.930;2022-08-03T08:19:16;111.38;;;99.38;;
13255;SDS011;37913;48.370;10.930;2022-08-03T08:21:43;115.10;;;102.95;;
13255;SDS011;37913;48.370;10.930;2022-08-03T08:24:12;115.25;;;103.38;;
13255;SDS011;37913;48.370;10.930;2022-08-03T08:26:39;115.72;;;104.10;;
13255;SDS011;37913;48.370;10.930;2022-08-03T08:29:06;116.85;;;105.05;;
13255;SDS011;37913;48.370;10.930;2022-08-03T08:31:33;118.00;;;105.75;;
13255;SDS011;37913;48.370;10.930;2022-08-03T08:34:00;117.43;;;105.72;;
13255;SDS011;37913;48.370;10.930;2022-08-03T08:36:30;120.70;;;108.38;;
13255;SDS011;37913;48.370;10.930;2022-08-03T08:38:57;121.13;;;108.85;;
13255;SDS011;37913;48.370;10.930;2022-08-03T08:41:26;114.93;;;104.18;;
13255;SDS011;37913;48.370;10.930;2022-08-03T08:43:53;120.78;;;108.57;;
13255;SDS011;37913;48.370;10.930;2022-08-03T08:46:20;122.00;;;109.22;;
13255;SDS011;37913;48.370;10.930;2022-08-03T08:48:48;120.65;;;108.28;;
13255;SDS011;37913;48.370;10.930;2022-08-03T08:51:17;120.38;;;108.15;;
13255;SDS011;37913;48.370;10.930;2022-08-03T08:53:47;124.85;;;112.50;;
13255;SDS011;37913;48.370;10.930;2022-08-03T08:56:17;124.03;;;111.95;;
13255;SDS011;37913;48.370;10.930;2022-08-03T08:58:52;127.00;;;115.10;;
13255;SDS011;37913;48.370;10.930;2022-08-03T09:01:21;127.93;;;115.78;;
13255;SDS011;37913;48.370;10.930;2022-08-03T09:03:49;127.95;;;116.10;;
13255;SDS011;37913;48.370;10.930;2022-08-03T09:06:18;129.90;;;117.68;;
13255;SDS011;37913;48.370;10.930;2022-08-03T09:08:45;130.90;;;118.00;;
13255;SDS011;37913;48.370;10.930;2022-08-03T09:11:12;133.70;;;121.22;;
13255;SDS011;37913;48.370;10.930;2022-08-03T09:13:39;139.82;;;126.55;;
13255;SDS011;37913;48.370;10.930;2022-08-03T09:16:14;139.00;;;126.60;;
13255;SDS011;37913;48.370;10.930;2022-08-03T09:18:43;142.07;;;129.63;;
13255;SDS011;37913;48.370;10.930;2022-08-03T09:21:12;140.32;;;127.90;;
13255;SDS011;37913;48.370;10.930;2022-08-03T09:23:43;138.30;;;125.85;;
13255;SDS011;37913;48.370;10.930;2022-08-03T09:26:11;138.43;;;125.68;;
13255;SDS011;37913;48.370;10.930;2022-08-03T09:28:38;143.48;;;130.43;;
13255;SDS011;37913;48.370;10.930;2022-08-03T09:31:05;145.52;;;132.50;;
13255;SDS011;37913;48.370;10.930;2022-08-03T09:33:34;142.02;;;128.98;;
13255;SDS011;37913;48.370;10.930;2022-08-03T09:39:01;142.57;;;129.63;;
13255;SDS011;37913;48.370;10.930;2022-08-03T09:41:30;137.07;;;124.95;;
13255;SDS011;37913;48.370;10.930;2022-08-03T09:43:57;136.45;;;124.40;;
13255;SDS011;37913;48.370;10.930;2022-08-03T09:46:24;138.32;;;126.47;;
13255;SDS011;37913;48.370;10.930;2022-08-03T09:49:08;131.18;;;119.78;;
13255;SDS011;37913;48.370;10.930;2022-08-03T09:51:36;133.10;;;121.35;;
13255;SDS011;37913;48.370;10.930;2022-08-03T09:54:04;135.82;;;124.07;;
13255;SDS011;37913;48.370;10.930;2022-08-03T09:56:42;144.43;;;130.82;;
13255;SDS011;37913;48.370;10.930;2022-08-03T09:59:10;142.75;;;130.75;;
13255;SDS011;37913;48.370;10.930;2022-08-03T10:01:38;148.73;;;136.07;;
13255;SDS011;37913;48.370;10.930;2022-08-03T10:04:11;146.00;;;134.07;;
13255;SDS011;37913;48.370;10.930;2022-08-03T10:06:42;151.55;;;137.48;;
13255;SDS011;37913;48.370;10.930;2022-08-03T10:09:12;150.48;;;136.70;;
13255;SDS011;37913;48.370;10.930;2022-08-03T10:11:41;143.27;;;130.82;;
13255;SDS011;37913;48.370;10.930;2022-08-03T10:14:09;141.18;;;129.45;;
13255;SDS011;37913;48.370;10.930;2022-08-03T10:16:42;141.82;;;129.13;;
13255;SDS011;37913;48.370;10.930;2022-08-03T10:19:12;146.38;;;133.25;;
13255;SDS011;37913;48.370;10.930;2022-08-03T10:21:40;139.57;;;127.80;;
13255;SDS011;37913;48.370;10.930;2022-08-03T10:24:12;135.98;;;124.18;;
13255;SDS011;37913;48.370;10.930;2022-08-03T10:26:44;139.48;;;127.85;;
13255;SDS011;37913;48.370;10.930;2022-08-03T10:29:13;150.95;;;138.65;;
13255;SDS011;37913;48.370;10.930;2022-08-03T10:31:46;141.55;;;130.38;;
13255;SDS011;37913;48.370;10.930;2022-08-03T10:34:16;147.98;;;134.45;;
13255;SDS011;37913;48.370;10.930;2022-08-03T10:36:47;136.43;;;124.47;;
13255;SDS011;37913;48.370;10.930;2022-08-03T10:39:18;141.65;;;129.45;;
13255;SDS011;37913;48.370;10.930;2022-08-03T10:41:47;141.93;;;129.57;;
13255;SDS011;37913;48.370;10.930;2022-08-03T10:44:16;142.75;;;130.98;;
13255;SDS011;37913;48.370;10.930;2022-08-03T10:46:45;142.80;;;130.63;;
13255;SDS011;37913;48.370;10.930;2022-08-03T10:49:16;149.00;;;136.27;;
13255;SDS011;37913;48.370;10.930;2022-08-03T10:51:45;144.27;;;131.98;;
13255;SDS011;37913;48.370;10.930;2022-08-03T10:57:41;144.73;;;131.57;;
13255;SDS011;37913;48.370;10.930;2022-08-03T11:00:13;141.98;;;130.23;;
13255;SDS011;37913;48.370;10.930;2022-08-03T11:03:00;141.60;;;129.15;;
13255;SDS011;37913;48.370;10.930;2022-08-03T11:05:35;154.90;;;140.98;;
13255;SDS011;37913;48.370;10.930;2022-08-03T11:10:51;143.25;;;131.40;;
13255;SDS011;37913;48.370;10.930;2022-08-03T11:13:20;138.48;;;127.13;;
13255;SDS011;37913;48.370;10.930;2022-08-03T11:15:49;149.20;;;136.43;;
13255;SDS011;37913;48.370;10.930;2022-08-03T11:18:18;143.10;;;131.45;;
13255;SDS011;37913;48.370;10.930;2022-08-03T11:20:47;142.32;;;130.20;;
13255;SDS011;37913;48.370;10.930;2022-08-03T11:23:16;138.90;;;126.47;;
13255;SDS011;37913;48.370;10.930;2022-08-03T11:28:33;141.52;;;129.88;;
13255;SDS011;37913;48.370;10.930;2022-08-03T11:34:04;149.82;;;137.02;;
13255;SDS011;37913;48.370;10.930;2022-08-03T11:39:40;149.80;;;137.23;;
13255;SDS011;37913;48.370;10.930;2022-08-03T11:42:37;144.23;;;132.52;;
13255;SDS011;37913;48.370;10.930;2022-08-03T11:45:12;146.60;;;134.63;;
13255;SDS011;37913;48.370;10.930;2022-08-03T11:47:39;146.45;;;134.75;;
13255;SDS011;37913;48.370;10.930;2022-08-03T11:50:08;151.57;;;138.30;;
13255;SDS011;37913;48.370;10.930;2022-08-03T11:52:41;151.15;;;138.90;;
13255;SDS011;37913;48.370;10.930;2022-08-03T11:55:13;145.40;;;132.73;;
13255;SDS011;37913;48.370;10.930;2022-08-03T11:57:44;141.73;;;130.07;;
13255;SDS011;37913;48.370;10.930;2022-08-03T12:00:22;147.35;;;135.48;;
13255;SDS011;37913;48.370;10.930;2022-08-03T12:03:01;139.77;;;128.45;;
13255;SDS011;37913;48.370;10.930;2022-08-03T12:05:37;140.93;;;128.57;;
13255;SDS011;37913;48.370;10.930;2022-08-03T12:08:09;139.82;;;127.47;;
13255;SDS011;37913;48.370;10.930;2022-08-03T12:10:39;145.18;;;132.80;;
13255;SDS011;37913;48.370;10.930;2022-08-03T12:13:11;150.73;;;138.80;;
13255;SDS011;37913;48.370;10.930;2022-08-03T12:15:38;159.27;;;146.80;;
13255;SDS011;37913;48.370;10.930;2022-08-03T12:18:13;160.30;;;146.80;;
13255;SDS011;37913;48.370;10.930;2022-08-03T12:20:42;147.13;;;135.07;;
13255;SDS011;37913;48.370;10.930;2022-08-03T12:23:10;145.57;;;133.88;;
13255;SDS011;37913;48.370;10.930;2022-08-03T12:25:39;142.55;;;130.95;;
13255;SDS011;37913;48.370;10.930;2022-08-03T12:28:09;142.35;;;131.10;;
13255;SDS011;37913;48.370;10.930;2022-08-03T12:30:45;140.70;;;128.98;;
13255;SDS011;37913;48.370;10.930;2022-08-03T12:33:15;146.80;;;134.25;;
13255;SDS011;37913;48.370;10.930;2022-08-03T12:35:46;149.65;;;136.57;;
13255;SDS011;37913;48.370;10.930;2022-08-03T12:38:18;144.57;;;132.57;;
13255;SDS011;37913;48.370;10.930;2022-08-03T12:40:59;152.18;;;137.45;;
13255;SDS011;37913;48.370;10.930;2022-08-03T12:43:29;144.85;;;132.90;;
13255;SDS011;37913;48.370;10.930;2022-08-03T12:46:09;143.20;;;131.35;;
13255;SDS011;37913;48.370;10.930;2022-08-03T12:51:31;151.18;;;137.65;;
13255;SDS011;37913;48.370;10.930;2022-08-03T12:53:59;147.52;;;134.57;;
13255;SDS011;37913;48.370;10.930;2022-08-03T12:56:28;146.90;;;135.02;;
13255;SDS011;37913;48.370;10.930;2022-08-03T12:58:55;153.75;;;141.00;;
13255;SDS011;37913;48.370;10.930;2022-08-03T13:01:22;153.90;;;141.43;;
13255;SDS011;37913;48.370;10.930;2022-08-03T13:03:52;151.32;;;138.90;;
13255;SDS011;37913;48.370;10.930;2022-08-03T13:06:23;146.07;;;134.15;;
13255;SDS011;37913;48.370;10.930;2022-08-03T13:09:00;149.88;;;136.80;;
13255;SDS011;37913;48.370;10.930;2022-08-03T13:11:31;147.68;;;135.80;;
13255;SDS011;37913;48.370;10.930;2022-08-03T13:13:59;148.98;;;136.57;;
13255;SDS011;37913;48.370;10.930;2022-08-03T13:16:26;149.32;;;136.38;;
13255;SDS011;37913;48.370;10.930;2022-08-03T13:18:53;150.38;;;137.60;;
13255;SDS011;37913;48.370;10.930;2022-08-03T13:21:21;148.18;;;135.68;;
13255;SDS011;37913;48.370;10.930;2022-08-03T13:23:48;152.80;;;140.43;;
13255;SDS011;37913;48.370;10.930;2022-08-03T13:26:15;150.93;;;138.57;;
13255;SDS011;37913;48.370;10.930;2022-08-03T13:28:43;151.50;;;138.88;;
13255;SDS011;37913;48.370;10.930;2022-08-03T13:31:10;147.27;;;135.05;;
13255;SDS011;37913;48.370;10.930;2022-08-03T13:33:37;148.55;;;136.32;;
13255;SDS011;37913;48.370;10.930;2022-08-03T13:36:05;144.68;;;133.23;;
13255;SDS011;37913;48.370;10.930;2022-08-03T13:38:34;149.20;;;136.88;;
13255;SDS011;37913;48.370;10.930;2022-08-03T13:41:00;145.18;;;133.43;;
13255;SDS011;37913;48.370;10.930;2022-08-03T13:43:28;148.18;;;136.95;;
13255;SDS011;37913;48.370;10.930;2022-08-03T13:45:57;148.50;;;136.18;;
13255;SDS011;37913;48.370;10.930;2022-08-03T13:48:24;147.35;;;134.90;;
13255;SDS011;37913;48.370;10.930;2022-08-03T13:50:51;140.38;;;129.85;;
13255;SDS011;37913;48.370;10.930;2022-08-03T13:53:18;142.60;;;131.27;;
13255;SDS011;37913;48.370;10.930;2022-08-03T13:55:45;145.85;;;133.90;;
13255;SDS011;37913;48.370;10.930;2022-08-03T13:58:12;143.18;;;131.80;;
13255;SDS011;37913;48.370;10.930;2022-08-03T14:00:39;147.55;;;135.98;;
13255;SDS011;37913;48.370;10.930;2022-08-03T14:03:08;134.15;;;123.20;;
13255;SDS011;37913;48.370;10.930;2022-08-03T14:05:35;138.80;;;126.30;;
13255;SDS011;37913;48.370;10.930;2022-08-03T14:08:04;130.20;;;118.35;;
13255;SDS011;37913;48.370;10.930;2022-08-03T14:10:33;128.88;;;117.47;;
13255;SDS011;37913;48.370;10.930;2022-08-03T14:13:01;122.43;;;110.32;;
13255;SDS011;37913;48.370;10.930;2022-08-03T14:15:28;117.05;;;105.90;;
13255;SDS011;37913;48.370;10.930;2022-08-03T14:17:56;111.50;;;99.97;;
13255;SDS011;37913;48.370;10.930;2022-08-03T14:20:24;112.45;;;100.47;;
13255;SDS011;37913;48.370;10.930;2022-08-03T14:22:51;110.18;;;97.65;;
13255;SDS011;37913;48.370;10.930;2022-08-03T14:25:20;105.88;;;94.47;;
13255;SDS011;37913;48.370;10.930;2022-08-03T14:27:47;102.22;;;91.05;;
13255;SDS011;37913;48.370;10.930;2022-08-03T14:30:15;106.55;;;88.85;;
13255;SDS011;37913;48.370;10.930;2022-08-03T14:32:42;114.93;;;94.35;;
13255;SDS011;37913;48.370;10.930;2022-08-03T14:35:10;97.55;;;84.72;;